sensor_id;sensor_type;location;lat;lon;timestamp;temperature;humidity
54518;DHT22;40423;53.176;6.002;2023-02-28T00:01:01;5.00;99.90
54518;DHT22;40423;53.176;6.002;2023-02-28T00:03:26;5.00;99.90
54518;DHT22;40423;53.176;6.002;2023-02-28T00:05:52;5.00;99.90
54518;DHT22;40423;53.176;6.002;2023-02-28T00:08:18;5.00;99.90
54518;DHT22;40423;53.176;6.002;2023-02-28T00:10:43;4.90;99.90
54518;DHT22;40423;53.176;6.002;2023-02-28T00:13:09;5.00;99.90
54518;DHT22;40423;53.176;6.002;2023-02-28T00:15:36;5.00;99.90
54518;DHT22;40423;53.176;6.002;2023-02-28T00:18:02;5.00;99.90
54518;DHT22;40423;53.176;6.002;2023-02-28T00:20:31;5.00;99.90
54518;DHT22;40423;53.176;6.002;2023-02-28T00:22:57;5.00;99.90
54518;DHT22;40423;53.176;6.002;2023-02-28T00:25:24;4.90;99.90
54518;DHT22;40423;53.176;6.002;2023-02-28T00:27:50;4.90;99.90
54518;DHT22;40423;53.176;6.002;2023-02-28T00:30:21;4.90;99.90
54518;DHT22;40423;53.176;6.002;2023-02-28T00:32:47;4.90;99.90
54518;DHT22;40423;53.176;6.002;2023-02-28T00:35:13;5.00;99.90
54518;DHT22;40423;53.176;6.002;2023-02-28T00:37:39;5.00;99.90
54518;DHT22;40423;53.176;6.002;2023-02-28T00:40:06;5.00;99.90
54518;DHT22;40423;53.176;6.002;2023-02-28T00:42:35;5.00;99.90
54518;DHT22;40423;53.176;6.002;2023-02-28T00:45:01;5.00;99.90
54518;DHT22;40423;53.176;6.002;2023-02-28T00:47:26;5.00;99.90
54518;DHT22;40423;53.176;6.002;2023-02-28T00:49:52;4.90;99.90
54518;DHT22;40423;53.176;6.002;2023-02-28T00:52:18;5.00;99.90
54518;DHT22;40423;53.176;6.002;2023-02-28T00:54:43;5.00;99.90
54518;DHT22;40423;53.176;6.002;2023-02-28T00:57:09;5.00;99.90
54518;DHT22;40423;53.176;6.002;2023-02-28T00:59:35;5.00;99.90
54518;DHT22;40423;53.176;6.002;2023-02-28T01:02:03;4.90;99.90
54518;DHT22;40423;53.176;6.002;2023-02-28T01:04:29;4.90;99.90
54518;DHT22;40423;53.176;6.002;2023-02-28T01:06:55;4.90;99.90
54518;DHT22;40423;53.176;6.002;2023-02-28T01:09:20;4.90;99.90
54518;DHT22;40423;53.176;6.002;2023-02-28T01:11:46;4.90;99.90
54518;DHT22;40423;53.176;6.002;2023-02-28T01:14:13;4.90;99.90
54518;DHT22;40423;53.176;6.002;2023-02-28T01:16:39;5.00;99.90
54518;DHT22;40423;53.176;6.002;2023-02-28T01:19:05;5.00;99.90
54518;DHT22;40423;53.176;6.002;2023-02-28T01:21:31;5.00;99.90
54518;DHT22;40423;53.176;6.002;2023-02-28T01:23:57;5.00;99.90
54518;DHT22;40423;53.176;6.002;2023-02-28T01:26:23;5.00;99.90
54518;DHT22;40423;53.176;6.002;2023-02-28T01:28:51;5.00;99.90
54518;DHT22;40423;53.176;6.002;2023-02-28T01:31:21;5.00;99.90
54518;DHT22;40423;53.176;6.002;2023-02-28T01:33:47;5.00;99.90
54518;DHT22;40423;53.176;6.002;2023-02-28T01:36:18;5.10;99.90
54518;DHT22;40423;53.176;6.002;2023-02-28T01:38:44;5.10;99.90
54518;DHT22;40423;53.176;6.002;2023-02-28T01:46:12;5.00;99.90
54518;DHT22;40423;53.176;6.002;2023-02-28T01:48:48;5.00;99.90
54518;DHT22;40423;53.176;6.002;2023-02-28T01:51:27;5.00;99.90
54518;DHT22;40423;53.176;6.002;2023-02-28T01:54:01;5.10;99.90
54518;DHT22;40423;53.176;6.002;2023-02-28T01:56:31;5.00;99.90
54518;DHT22;40423;53.176;6.002;2023-02-28T01:58:58;5.00;99.90
54518;DHT22;40423;53.176;6.002;2023-02-28T02:01:25;5.00;99.90
54518;DHT22;40423;53.176;6.002;2023-02-28T02:03:57;5.00;99.90
54518;DHT22;40423;53.176;6.002;2023-02-28T02:06:45;5.00;99.90
54518;DHT22;40423;53.176;6.002;2023-02-28T02:09:13;5.00;99.90
54518;DHT22;40423;53.176;6.002;2023-02-28T02:11:43;5.00;99.90
54518;DHT22;40423;53.176;6.002;2023-02-28T02:14:36;5.00;99.90
54518;DHT22;40423;53.176;6.002;2023-02-28T02:17:14;5.10;99.90
54518;DHT22;40423;53.176;6.002;2023-02-28T02:20:27;5.00;99.90
54518;DHT22;40423;53.176;6.002;2023-02-28T02:30:55;5.10;99.90
54518;DHT22;40423;53.176;6.002;2023-02-28T02:36:40;5.10;99.90
54518;DHT22;40423;53.176;6.002;2023-02-28T02:39:19;5.10;99.90
54518;DHT22;40423;53.176;6.002;2023-02-28T02:41:51;5.10;99.90
54518;DHT22;40423;53.176;6.002;2023-02-28T02:44:31;5.10;99.90
54518;DHT22;40423;53.176;6.002;2023-02-28T02:47:13;5.10;99.90
54518;DHT22;40423;53.176;6.002;2023-02-28T02:49:43;5.10;99.90
54518;DHT22;40423;53.176;6.002;2023-02-28T02:52:15;5.10;99.90
54518;DHT22;40423;53.176;6.002;2023-02-28T02:54:45;5.20;99.90
54518;DHT22;40423;53.176;6.002;2023-02-28T02:57:24;5.20;99.90
54518;DHT22;40423;53.176;6.002;2023-02-28T02:59:55;5.20;99.90
54518;DHT22;40423;53.176;6.002;2023-02-28T03:02:24;5.20;99.90
54518;DHT22;40423;53.176;6.002;2023-02-28T03:04:59;5.30;99.90
54518;DHT22;40423;53.176;6.002;2023-02-28T03:07:26;5.30;99.90
54518;DHT22;40423;53.176;6.002;2023-02-28T03:09:54;5.30;99.90
54518;DHT22;40423;53.176;6.002;2023-02-28T03:12:20;5.30;99.90
54518;DHT22;40423;53.176;6.002;2023-02-28T03:15:11;5.30;99.90
54518;DHT22;40423;53.176;6.002;2023-02-28T03:21:03;5.30;99.90
54518;DHT22;40423;53.176;6.002;2023-02-28T03:24:29;5.30;99.90
54518;DHT22;40423;53.176;6.002;2023-02-28T03:26:26;5.30;99.90
54518;DHT22;40423;53.176;6.002;2023-02-28T03:31:39;5.30;99.90
54518;DHT22;40423;53.176;6.002;2023-02-28T03:34:30;5.30;99.90
54518;DHT22;40423;53.176;6.002;2023-02-28T03:37:07;5.30;99.90
54518;DHT22;40423;53.176;6.002;2023-02-28T03:39:38;5.30;99.90
54518;DHT22;40423;53.176;6.002;2023-02-28T03:42:13;5.30;99.90
54518;DHT22;40423;53.176;6.002;2023-02-28T03:44:44;5.30;99.90
54518;DHT22;40423;53.176;6.002;2023-02-28T03:47:17;5.40;99.90
54518;DHT22;40423;53.176;6.002;2023-02-28T03:49:46;5.40;99.90
54518;DHT22;40423;53.176;6.002;2023-02-28T03:52:14;5.40;99.90
54518;DHT22;40423;53.176;6.002;2023-02-28T03:54:45;5.40;99.90
54518;DHT22;40423;53.176;6.002;2023-02-28T03:57:35;5.40;99.90
54518;DHT22;40423;53.176;6.002;2023-02-28T04:02:39;5.30;99.90
54518;DHT22;40423;53.176;6.002;2023-02-28T04:05:06;5.30;99.90
54518;DHT22;40423;53.176;6.002;2023-02-28T04:07:32;5.30;99.90
54518;DHT22;40423;53.176;6.002;2023-02-28T04:09:58;5.30;99.90
54518;DHT22;40423;53.176;6.002;2023-02-28T04:12:25;5.30;99.90
54518;DHT22;40423;53.176;6.002;2023-02-28T04:14:50;5.30;99.90
54518;DHT22;40423;53.176;6.002;2023-02-28T04:17:16;5.30;99.90
54518;DHT22;40423;53.176;6.002;2023-02-28T04:19:42;5.30;99.90
54518;DHT22;40423;53.176;6.002;2023-02-28T04:22:11;5.30;99.90
54518;DHT22;40423;53.176;6.002;2023-02-28T04:24:37;5.30;99.90
54518;DHT22;40423;53.176;6.002;2023-02-28T04:27:08;5.30;99.90
54518;DHT22;40423;53.176;6.002;2023-02-28T04:29:34;5.30;99.90
54518;DHT22;40423;53.176;6.002;2023-02-28T04:32:00;5.30;99.90
54518;DHT22;40423;53.176;6.002;2023-02-28T04:34:28;5.30;99.90
54518;DHT22;40423;53.176;6.002;2023-02-28T04:36:55;5.30;99.90
54518;DHT22;40423;53.176;6.002;2023-02-28T04:39:24;5.40;99.90
54518;DHT22;40423;53.176;6.002;2023-02-28T04:41:50;5.40;99.90
54518;DHT22;40423;53.176;6.002;2023-02-28T04:44:16;5.40;99.90
54518;DHT22;40423;53.176;6.002;2023-02-28T04:46:43;5.40;99.90
54518;DHT22;40423;53.176;6.002;2023-02-28T04:49:12;5.40;99.90
54518;DHT22;40423;53.176;6.002;2023-02-28T04:51:38;5.40;99.90
54518;DHT22;40423;53.176;6.002;2023-02-28T04:54:04;5.40;99.90
54518;DHT22;40423;53.176;6.002;2023-02-28T04:56:30;5.40;99.90
54518;DHT22;40423;53.176;6.002;2023-02-28T04:58:55;5.40;99.90
54518;DHT22;40423;53.176;6.002;2023-02-28T05:01:27;5.50;99.90
54518;DHT22;40423;53.176;6.002;2023-02-28T05:03:56;5.50;99.90
54518;DHT22;40423;53.176;6.002;2023-02-28T05:06:23;5.50;99.90
54518;DHT22;40423;53.176;6.002;2023-02-28T05:08:49;5.50;99.90
54518;DHT22;40423;53.176;6.002;2023-02-28T05:13:46;5.50;99.90
54518;DHT22;40423;53.176;6.002;2023-02-28T05:16:15;5.50;99.90
54518;DHT22;40423;53.176;6.002;2023-02-28T05:18:41;5.50;99.90
54518;DHT22;40423;53.176;6.002;2023-02-28T05:21:24;5.50;99.90
54518;DHT22;40423;53.176;6.002;2023-02-28T05:23:51;5.40;99.90
54518;DHT22;40423;53.176;6.002;2023-02-28T05:26:16;5.40;99.90
54518;DHT22;40423;53.176;6.002;2023-02-28T05:28:42;5.40;99.90
54518;DHT22;40423;53.176;6.002;2023-02-28T05:31:10;5.40;99.90
54518;DHT22;40423;53.176;6.002;2023-02-28T05:33:36;5.40;99.90
54518;DHT22;40423;53.176;6.002;2023-02-28T05:36:02;5.30;99.90
54518;DHT22;40423;53.176;6.002;2023-02-28T05:38:28;5.30;99.90
54518;DHT22;40423;53.176;6.002;2023-02-28T05:40:54;5.20;99.90
54518;DHT22;40423;53.176;6.002;2023-02-28T05:43:20;5.10;99.90
54518;DHT22;40423;53.176;6.002;2023-02-28T05:45:45;5.00;99.90
54518;DHT22;40423;53.176;6.002;2023-02-28T05:48:11;4.90;99.90
54518;DHT22;40423;53.176;6.002;2023-02-28T05:50:37;4.90;99.90
54518;DHT22;40423;53.176;6.002;2023-02-28T05:53:02;4.80;99.90
54518;DHT22;40423;53.176;6.002;2023-02-28T05:55:28;4.80;99.90
54518;DHT22;40423;53.176;6.002;2023-02-28T05:57:54;4.70;99.90
54518;DHT22;40423;53.176;6.002;2023-02-28T06:00:20;4.70;99.90
54518;DHT22;40423;53.176;6.002;2023-02-28T06:02:46;4.70;99.90
54518;DHT22;40423;53.176;6.002;2023-02-28T06:05:17;4.60;99.90
54518;DHT22;40423;53.176;6.002;2023-02-28T06:07:43;4.60;99.90
54518;DHT22;40423;53.176;6.002;2023-02-28T06:10:10;4.50;99.90
54518;DHT22;40423;53.176;6.002;2023-02-28T06:12:37;4.50;99.90
54518;DHT22;40423;53.176;6.002;2023-02-28T06:15:03;4.40;99.90
54518;DHT22;40423;53.176;6.002;2023-02-28T06:17:29;4.40;99.90
54518;DHT22;40423;53.176;6.002;2023-02-28T06:19:55;4.40;99.90
54518;DHT22;40423;53.176;6.002;2023-02-28T06:22:20;4.30;99.90
54518;DHT22;40423;53.176;6.002;2023-02-28T06:24:46;4.30;99.90
54518;DHT22;40423;53.176;6.002;2023-02-28T06:27:12;4.30;99.90
54518;DHT22;40423;53.176;6.002;2023-02-28T06:29:38;4.30;99.90
54518;DHT22;40423;53.176;6.002;2023-02-28T06:32:06;4.30;99.90
54518;DHT22;40423;53.176;6.002;2023-02-28T06:34:32;4.30;99.90
54518;DHT22;40423;53.176;6.002;2023-02-28T06:36:59;4.30;99.90
54518;DHT22;40423;53.176;6.002;2023-02-28T06:39:28;4.30;99.90
54518;DHT22;40423;53.176;6.002;2023-02-28T06:41:54;4.30;99.90
54518;DHT22;40423;53.176;6.002;2023-02-28T06:44:20;4.20;99.90
54518;DHT22;40423;53.176;6.002;2023-02-28T06:46:46;4.20;99.90
54518;DHT22;40423;53.176;6.002;2023-02-28T06:49:12;4.30;99.90
54518;DHT22;40423;53.176;6.002;2023-02-28T06:51:42;4.20;99.90
54518;DHT22;40423;53.176;6.002;2023-02-28T06:54:11;4.20;99.90
54518;DHT22;40423;53.176;6.002;2023-02-28T06:56:37;4.10;99.90
54518;DHT22;40423;53.176;6.002;2023-02-28T06:59:06;4.00;99.90
54518;DHT22;40423;53.176;6.002;2023-02-28T07:01:32;4.10;99.90
54518;DHT22;40423;53.176;6.002;2023-02-28T07:04:01;4.00;99.90
54518;DHT22;40423;53.176;6.002;2023-02-28T07:06:27;3.90;99.90
54518;DHT22;40423;53.176;6.002;2023-02-28T07:08:54;3.90;99.90
54518;DHT22;40423;53.176;6.002;2023-02-28T07:11:22;3.90;99.90
54518;DHT22;40423;53.176;6.002;2023-02-28T07:13:51;3.90;99.90
54518;DHT22;40423;53.176;6.002;2023-02-28T07:16:17;3.90;99.90
54518;DHT22;40423;53.176;6.002;2023-02-28T07:18:43;3.90;99.90
54518;DHT22;40423;53.176;6.002;2023-02-28T07:21:10;3.80;99.90
54518;DHT22;40423;53.176;6.002;2023-02-28T07:23:36;3.90;99.90
54518;DHT22;40423;53.176;6.002;2023-02-28T07:26:12;3.80;99.90
54518;DHT22;40423;53.176;6.002;2023-02-28T07:28:44;3.80;99.90
54518;DHT22;40423;53.176;6.002;2023-02-28T07:31:11;3.80;99.90
54518;DHT22;40423;53.176;6.002;2023-02-28T07:33:37;3.80;99.90
54518;DHT22;40423;53.176;6.002;2023-02-28T07:36:08;3.80;99.90
54518;DHT22;40423;53.176;6.002;2023-02-28T07:38:36;3.80;99.90
54518;DHT22;40423;53.176;6.002;2023-02-28T07:41:03;3.70;99.90
54518;DHT22;40423;53.176;6.002;2023-02-28T07:43:32;3.70;99.90
54518;DHT22;40423;53.176;6.002;2023-02-28T07:46:06;3.70;99.90
54518;DHT22;40423;53.176;6.002;2023-02-28T07:48:32;3.90;99.90
54518;DHT22;40423;53.176;6.002;2023-02-28T07:50:58;3.60;99.90
54518;DHT22;40423;53.176;6.002;2023-02-28T07:53:25;3.70;99.90
54518;DHT22;40423;53.176;6.002;2023-02-28T07:55:51;3.70;99.90
54518;DHT22;40423;53.176;6.002;2023-02-28T07:58:16;3.70;99.90
54518;DHT22;40423;53.176;6.002;2023-02-28T08:00:42;3.70;99.90
54518;DHT22;40423;53.176;6.002;2023-02-28T08:03:11;3.70;99.90
54518;DHT22;40423;53.176;6.002;2023-02-28T08:05:41;3.70;99.90
54518;DHT22;40423;53.176;6.002;2023-02-28T08:08:07;3.80;99.90
54518;DHT22;40423;53.176;6.002;2023-02-28T08:10:33;3.80;99.90
54518;DHT22;40423;53.176;6.002;2023-02-28T08:12:59;3.80;99.90
54518;DHT22;40423;53.176;6.002;2023-02-28T08:15:25;3.80;99.90
54518;DHT22;40423;53.176;6.002;2023-02-28T08:17:51;3.80;99.90
54518;DHT22;40423;53.176;6.002;2023-02-28T08:20:17;3.80;99.90
54518;DHT22;40423;53.176;6.002;2023-02-28T08:22:46;3.80;99.90
54518;DHT22;40423;53.176;6.002;2023-02-28T08:25:12;3.80;99.90
54518;DHT22;40423;53.176;6.002;2023-02-28T08:27:37;3.80;99.90
54518;DHT22;40423;53.176;6.002;2023-02-28T08:30:03;3.80;99.90
54518;DHT22;40423;53.176;6.002;2023-02-28T08:32:29;3.80;99.90
54518;DHT22;40423;53.176;6.002;2023-02-28T08:34:55;3.80;99.90
54518;DHT22;40423;53.176;6.002;2023-02-28T08:37:21;3.80;99.90
54518;DHT22;40423;53.176;6.002;2023-02-28T08:39:47;3.90;99.90
54518;DHT22;40423;53.176;6.002;2023-02-28T08:42:13;3.90;99.90
54518;DHT22;40423;53.176;6.002;2023-02-28T08:44:38;3.90;99.90
54518;DHT22;40423;53.176;6.002;2023-02-28T08:47:07;3.90;99.90
54518;DHT22;40423;53.176;6.002;2023-02-28T08:49:33;3.90;99.90
54518;DHT22;40423;53.176;6.002;2023-02-28T08:51:59;3.90;99.90
54518;DHT22;40423;53.176;6.002;2023-02-28T08:54:24;4.00;99.90
54518;DHT22;40423;53.176;6.002;2023-02-28T08:56:50;4.00;99.90
54518;DHT22;40423;53.176;6.002;2023-02-28T08:59:16;4.00;99.90
54518;DHT22;40423;53.176;6.002;2023-02-28T09:01:42;4.10;99.90
54518;DHT22;40423;53.176;6.002;2023-02-28T09:04:09;4.10;99.90
54518;DHT22;40423;53.176;6.002;2023-02-28T09:06:36;4.10;99.90
54518;DHT22;40423;53.176;6.002;2023-02-28T09:09:02;4.10;99.90
54518;DHT22;40423;53.176;6.002;2023-02-28T09:11:30;4.10;99.90
54518;DHT22;40423;53.176;6.002;2023-02-28T09:13:55;4.20;99.90
54518;DHT22;40423;53.176;6.002;2023-02-28T09:16:21;4.20;99.90
54518;DHT22;40423;53.176;6.002;2023-02-28T09:18:47;4.20;99.90
54518;DHT22;40423;53.176;6.002;2023-02-28T09:21:20;4.30;99.90
54518;DHT22;40423;53.176;6.002;2023-02-28T09:23:48;4.40;99.90
54518;DHT22;40423;53.176;6.002;2023-02-28T09:26:17;4.40;99.90
54518;DHT22;40423;53.176;6.002;2023-02-28T09:28:43;4.50;99.90
54518;DHT22;40423;53.176;6.002;2023-02-28T09:31:21;4.50;99.90
54518;DHT22;40423;53.176;6.002;2023-02-28T09:33:51;4.60;99.90
54518;DHT22;40423;53.176;6.002;2023-02-28T09:36:17;4.70;99.90
54518;DHT22;40423;53.176;6.002;2023-02-28T09:38:44;4.70;99.90
54518;DHT22;40423;53.176;6.002;2023-02-28T09:41:17;4.70;99.90
54518;DHT22;40423;53.176;6.002;2023-02-28T09:43:50;4.70;99.90
54518;DHT22;40423;53.176;6.002;2023-02-28T09:46:38;4.80;99.90
54518;DHT22;40423;53.176;6.002;2023-02-28T09:49:14;4.80;99.90
54518;DHT22;40423;53.176;6.002;2023-02-28T09:54:22;4.90;99.90
54518;DHT22;40423;53.176;6.002;2023-02-28T09:57:01;5.00;99.90
54518;DHT22;40423;53.176;6.002;2023-02-28T09:59:54;5.00;99.90
54518;DHT22;40423;53.176;6.002;2023-02-28T10:05:54;5.10;99.90
54518;DHT22;40423;53.176;6.002;2023-02-28T10:08:25;5.30;99.90
54518;DHT22;40423;53.176;6.002;2023-02-28T10:11:01;5.50;99.90
54518;DHT22;40423;53.176;6.002;2023-02-28T10:13:36;5.70;99.90
54518;DHT22;40423;53.176;6.002;2023-02-28T10:16:22;5.90;99.90
54518;DHT22;40423;53.176;6.002;2023-02-28T10:19:21;6.10;99.90
54518;DHT22;40423;53.176;6.002;2023-02-28T10:22:01;6.30;99.90
54518;DHT22;40423;53.176;6.002;2023-02-28T10:24:46;6.50;99.90
54518;DHT22;40423;53.176;6.002;2023-02-28T10:27:16;6.80;99.90
54518;DHT22;40423;53.176;6.002;2023-02-28T10:29:53;7.00;99.90
54518;DHT22;40423;53.176;6.002;2023-02-28T10:32:26;7.30;99.90
54518;DHT22;40423;53.176;6.002;2023-02-28T10:34:59;7.50;99.90
54518;DHT22;40423;53.176;6.002;2023-02-28T10:37:29;7.50;99.90
54518;DHT22;40423;53.176;6.002;2023-02-28T10:39:54;7.60;99.90
54518;DHT22;40423;53.176;6.002;2023-02-28T10:42:25;7.60;99.90
54518;DHT22;40423;53.176;6.002;2023-02-28T10:50:34;7.80;99.90
54518;DHT22;40423;53.176;6.002;2023-02-28T11:03:49;8.50;99.90
54518;DHT22;40423;53.176;6.002;2023-02-28T11:06:16;8.70;99.90
54518;DHT22;40423;53.176;6.002;2023-02-28T11:08:50;8.80;99.90
54518;DHT22;40423;53.176;6.002;2023-02-28T11:11:17;8.90;99.90
54518;DHT22;40423;53.176;6.002;2023-02-28T11:13:45;8.90;99.90
54518;DHT22;40423;53.176;6.002;2023-02-28T11:16:13;8.90;99.90
54518;DHT22;40423;53.176;6.002;2023-02-28T11:18:54;9.00;99.90
54518;DHT22;40423;53.176;6.002;2023-02-28T11:21:27;9.10;99.90
54518;DHT22;40423;53.176;6.002;2023-02-28T11:24:44;9.20;99.90
54518;DHT22;40423;53.176;6.002;2023-02-28T11:26:50;9.20;99.90
54518;DHT22;40423;53.176;6.002;2023-02-28T11:29:29;9.20;99.90
54518;DHT22;40423;53.176;6.002;2023-02-28T11:34:27;9.30;99.90
54518;DHT22;40423;53.176;6.002;2023-02-28T11:36:58;9.50;99.90
54518;DHT22;40423;53.176;6.002;2023-02-28T11:39:25;9.60;99.90
54518;DHT22;40423;53.176;6.002;2023-02-28T11:51:02;9.60;99.90
54518;DHT22;40423;53.176;6.002;2023-02-28T12:12:43;9.80;99.90
54518;DHT22;40423;53.176;6.002;2023-02-28T12:27:02;10.10;99.90
54518;DHT22;40423;53.176;6.002;2023-02-28T12:29:37;10.00;99.30
54518;DHT22;40423;53.176;6.002;2023-02-28T12:32:12;10.10;99.90
54518;DHT22;40423;53.176;6.002;2023-02-28T12:34:41;10.20;99.90
54518;DHT22;40423;53.176;6.002;2023-02-28T12:37:15;10.10;99.70
54518;DHT22;40423;53.176;6.002;2023-02-28T12:39:45;10.20;99.90
54518;DHT22;40423;53.176;6.002;2023-02-28T12:42:39;10.20;99.90
54518;DHT22;40423;53.176;6.002;2023-02-28T12:45:41;10.50;99.90
54518;DHT22;40423;53.176;6.002;2023-02-28T12:48:07;10.50;99.50
54518;DHT22;40423;53.176;6.002;2023-02-28T12:54:24;10.30;99.90
54518;DHT22;40423;53.176;6.002;2023-02-28T12:59:50;9.90;99.90
54518;DHT22;40423;53.176;6.002;2023-02-28T13:05:29;10.10;99.90
54518;DHT22;40423;53.176;6.002;2023-02-28T13:10:45;9.80;99.90
54518;DHT22;40423;53.176;6.002;2023-02-28T13:13:16;9.70;99.90
54518;DHT22;40423;53.176;6.002;2023-02-28T13:18:45;9.50;99.90
54518;DHT22;40423;53.176;6.002;2023-02-28T13:21:26;9.60;99.90
54518;DHT22;40423;53.176;6.002;2023-02-28T13:26:23;9.30;99.90
54518;DHT22;40423;53.176;6.002;2023-02-28T13:34:32;9.00;99.90
54518;DHT22;40423;53.176;6.002;2023-02-28T13:39:58;8.90;99.90
54518;DHT22;40423;53.176;6.002;2023-02-28T13:50:28;8.60;99.90
54518;DHT22;40423;53.176;6.002;2023-02-28T14:03:45;9.30;99.90
54518;DHT22;40423;53.176;6.002;2023-02-28T14:06:49;9.30;99.90
54518;DHT22;40423;53.176;6.002;2023-02-28T14:09:25;9.00;99.90
54518;DHT22;40423;53.176;6.002;2023-02-28T14:11:51;9.00;99.90
54518;DHT22;40423;53.176;6.002;2023-02-28T14:17:15;8.80;99.90
54518;DHT22;40423;53.176;6.002;2023-02-28T14:19:45;8.90;99.90
54518;DHT22;40423;53.176;6.002;2023-02-28T14:37:29;9.00;99.90
54518;DHT22;40423;53.176;6.002;2023-02-28T14:39:57;8.90;99.40
54518;DHT22;40423;53.176;6.002;2023-02-28T14:42:34;8.80;99.90
54518;DHT22;40423;53.176;6.002;2023-02-28T14:45:00;8.60;99.90
54518;DHT22;40423;53.176;6.002;2023-02-28T14:47:36;8.50;99.90
54518;DHT22;40423;53.176;6.002;2023-02-28T14:50:04;8.40;99.60
54518;DHT22;40423;53.176;6.002;2023-02-28T14:52:35;8.30;99.90
54518;DHT22;40423;53.176;6.002;2023-02-28T14:55:05;8.20;99.90
54518;DHT22;40423;53.176;6.002;2023-02-28T14:57:41;8.20;99.90
54518;DHT22;40423;53.176;6.002;2023-02-28T15:00:17;8.10;99.90
54518;DHT22;40423;53.176;6.002;2023-02-28T15:02:45;8.20;99.90
54518;DHT22;40423;53.176;6.002;2023-02-28T15:07:47;8.10;99.90
54518;DHT22;40423;53.176;6.002;2023-02-28T15:10:25;8.10;99.90
54518;DHT22;40423;53.176;6.002;2023-02-28T15:13:02;8.10;99.90
54518;DHT22;40423;53.176;6.002;2023-02-28T15:18:06;8.00;99.90
54518;DHT22;40423;53.176;6.002;2023-02-28T15:20:33;8.00;99.90
54518;DHT22;40423;53.176;6.002;2023-02-28T15:23:01;8.00;99.90
54518;DHT22;40423;53.176;6.002;2023-02-28T15:25:27;8.00;99.90
54518;DHT22;40423;53.176;6.002;2023-02-28T15:27:54;8.00;99.90
54518;DHT22;40423;53.176;6.002;2023-02-28T15:30:30;7.90;99.90
54518;DHT22;40423;53.176;6.002;2023-02-28T15:33:24;7.90;99.90
54518;DHT22;40423;53.176;6.002;2023-02-28T15:36:11;7.90;99.90
54518;DHT22;40423;53.176;6.002;2023-02-28T15:38:37;7.90;99.90
54518;DHT22;40423;53.176;6.002;2023-02-28T15:41:03;7.90;99.90
54518;DHT22;40423;53.176;6.002;2023-02-28T15:43:38;7.80;99.90
54518;DHT22;40423;53.176;6.002;2023-02-28T15:46:10;7.80;99.90
54518;DHT22;40423;53.176;6.002;2023-02-28T15:48:43;7.70;99.90
54518;DHT22;40423;53.176;6.002;2023-02-28T15:54:16;7.80;99.90
54518;DHT22;40423;53.176;6.002;2023-02-28T15:56:46;7.70;99.90
54518;DHT22;40423;53.176;6.002;2023-02-28T15:59:27;7.70;99.90
54518;DHT22;40423;53.176;6.002;2023-02-28T16:04:28;7.60;99.90
54518;DHT22;40423;53.176;6.002;2023-02-28T16:09:26;7.60;99.90
54518;DHT22;40423;53.176;6.002;2023-02-28T16:11:54;7.60;99.90
54518;DHT22;40423;53.176;6.002;2023-02-28T16:14:26;7.50;99.90
54518;DHT22;40423;53.176;6.002;2023-02-28T16:17:02;7.50;99.90
54518;DHT22;40423;53.176;6.002;2023-02-28T16:19:28;7.50;99.90
54518;DHT22;40423;53.176;6.002;2023-02-28T16:21:54;7.40;99.90
54518;DHT22;40423;53.176;6.002;2023-02-28T16:24:20;7.40;99.90
54518;DHT22;40423;53.176;6.002;2023-02-28T16:26:47;7.30;99.90
54518;DHT22;40423;53.176;6.002;2023-02-28T16:31:49;7.30;99.90
54518;DHT22;40423;53.176;6.002;2023-02-28T16:34:15;7.20;99.90
54518;DHT22;40423;53.176;6.002;2023-02-28T16:36:40;7.20;99.90
54518;DHT22;40423;53.176;6.002;2023-02-28T16:39:06;7.20;99.90
54518;DHT22;40423;53.176;6.002;2023-02-28T16:41:33;7.20;99.90
54518;DHT22;40423;53.176;6.002;2023-02-28T16:44:00;7.10;99.90
54518;DHT22;40423;53.176;6.002;2023-02-28T16:46:34;7.00;99.90
54518;DHT22;40423;53.176;6.002;2023-02-28T16:49:00;6.90;99.90
54518;DHT22;40423;53.176;6.002;2023-02-28T16:51:26;6.90;99.90
54518;DHT22;40423;53.176;6.002;2023-02-28T16:53:52;6.80;99.90
54518;DHT22;40423;53.176;6.002;2023-02-28T16:56:21;6.80;99.90
54518;DHT22;40423;53.176;6.002;2023-02-28T16:58:48;6.80;99.90
54518;DHT22;40423;53.176;6.002;2023-02-28T17:01:14;6.70;99.90
54518;DHT22;40423;53.176;6.002;2023-02-28T17:03:41;6.70;99.90
54518;DHT22;40423;53.176;6.002;2023-02-28T17:06:24;6.60;99.90
54518;DHT22;40423;53.176;6.002;2023-02-28T17:08:51;6.60;99.90
54518;DHT22;40423;53.176;6.002;2023-02-28T17:11:18;6.50;99.90
54518;DHT22;40423;53.176;6.002;2023-02-28T17:13:44;6.50;99.90
54518;DHT22;40423;53.176;6.002;2023-02-28T17:16:30;6.40;99.90
54518;DHT22;40423;53.176;6.002;2023-02-28T17:18:59;6.40;99.90
54518;DHT22;40423;53.176;6.002;2023-02-28T17:21:25;6.20;99.90
54518;DHT22;40423;53.176;6.002;2023-02-28T17:23:51;6.20;99.90
54518;DHT22;40423;53.176;6.002;2023-02-28T17:26:20;6.10;99.90
54518;DHT22;40423;53.176;6.002;2023-02-28T17:28:49;6.00;99.90
54518;DHT22;40423;53.176;6.002;2023-02-28T17:31:16;5.90;99.90
54518;DHT22;40423;53.176;6.002;2023-02-28T17:33:43;5.80;99.90
54518;DHT22;40423;53.176;6.002;2023-02-28T17:36:15;5.80;99.90
54518;DHT22;40423;53.176;6.002;2023-02-28T17:38:41;5.70;99.90
54518;DHT22;40423;53.176;6.002;2023-02-28T17:41:10;5.70;99.90
54518;DHT22;40423;53.176;6.002;2023-02-28T17:43:35;5.60;99.90
54518;DHT22;40423;53.176;6.002;2023-02-28T17:46:01;5.60;99.90
54518;DHT22;40423;53.176;6.002;2023-02-28T17:48:27;5.50;99.90
54518;DHT22;40423;53.176;6.002;2023-02-28T17:50:53;5.50;99.90
54518;DHT22;40423;53.176;6.002;2023-02-28T17:53:22;5.50;99.90
54518;DHT22;40423;53.176;6.002;2023-02-28T17:55:49;5.40;99.90
54518;DHT22;40423;53.176;6.002;2023-02-28T17:58:15;5.40;99.90
54518;DHT22;40423;53.176;6.002;2023-02-28T18:00:41;5.30;99.90
54518;DHT22;40423;53.176;6.002;2023-02-28T18:03:07;5.30;99.90
54518;DHT22;40423;53.176;6.002;2023-02-28T18:05:33;5.30;99.90
54518;DHT22;40423;53.176;6.002;2023-02-28T18:07:59;5.20;99.90
54518;DHT22;40423;53.176;6.002;2023-02-28T18:10:25;5.20;99.90
54518;DHT22;40423;53.176;6.002;2023-02-28T18:12:52;5.20;99.90
54518;DHT22;40423;53.176;6.002;2023-02-28T18:15:20;5.10;99.90
54518;DHT22;40423;53.176;6.002;2023-02-28T18:17:47;5.10;99.90
54518;DHT22;40423;53.176;6.002;2023-02-28T18:20:13;5.00;99.90
54518;DHT22;40423;53.176;6.002;2023-02-28T18:22:40;5.00;99.90
54518;DHT22;40423;53.176;6.002;2023-02-28T18:25:07;4.90;99.90
54518;DHT22;40423;53.176;6.002;2023-02-28T18:27:34;4.90;99.90
54518;DHT22;40423;53.176;6.002;2023-02-28T18:30:01;4.80;99.90
54518;DHT22;40423;53.176;6.002;2023-02-28T18:32:28;4.80;99.90
54518;DHT22;40423;53.176;6.002;2023-02-28T18:34:54;4.70;99.90
54518;DHT22;40423;53.176;6.002;2023-02-28T18:37:19;4.70;99.90
54518;DHT22;40423;53.176;6.002;2023-02-28T18:39:46;4.60;99.90
54518;DHT22;40423;53.176;6.002;2023-02-28T18:42:12;4.60;99.90
54518;DHT22;40423;53.176;6.002;2023-02-28T18:44:37;4.60;99.90
54518;DHT22;40423;53.176;6.002;2023-02-28T18:47:03;4.60;99.90
54518;DHT22;40423;53.176;6.002;2023-02-28T18:49:30;4.60;99.90
54518;DHT22;40423;53.176;6.002;2023-02-28T18:51:58;4.60;99.90